Time;durP1;ratioP1;P1;durP2;ratioP2;P2;SDS_P1;SDS_P2;PMS_P1;PMS_P2;Temp;Humidity;BMP_temperature;BMP_pressure;BME280_temperature;BME280_humidity;BME280_pressure;Samples;Min_cycle;Max_cycle;Signal;HPM_P1;HPM_P2
2020/12/12 00:00:56;;;;;;;;;;;9.90;99.90;;;;;;5094158;28;19908;-72
2020/12/12 00:03:21;;;;;;;;;;;10.00;99.90;;;;;;5079371;28;20062;-72
2020/12/12 00:05:47;;;;;;;;;;;10.00;99.90;;;;;;5093059;28;19912;-72
2020/12/12 00:08:12;;;;;;;;;;;9.90;99.90;;;;;;5099240;28;20237;-72
2020/12/12 00:10:38;;;;;;;;;;;9.90;99.90;;;;;;5092741;28;19908;-72
2020/12/12 00:13:07;;;;;;;;;;;9.90;99.90;;;;;;5099246;28;19908;-73
2020/12/12 00:15:33;;;;;;;;;;;9.80;99.90;;;;;;5092518;28;19908;-72
2020/12/12 00:17:59;;;;;;;;;;;9.70;99.90;;;;;;5099160;28;19911;-72
2020/12/12 00:20:24;;;;;;;;;;;9.80;99.90;;;;;;5092473;28;19995;-73
2020/12/12 00:22:50;;;;;;;;;;;9.80;99.90;;;;;;5099087;28;19904;-73
2020/12/12 00:25:15;;;;;;;;;;;9.70;99.90;;;;;;5092383;28;19969;-73
2020/12/12 00:27:41;;;;;;;;;;;9.90;99.90;;;;;;5098831;28;20022;-72
2020/12/12 00:30:06;;;;;;;;;;;9.80;99.90;;;;;;5072787;28;20336;-72
2020/12/12 00:32:32;;;;;;;;;;;9.70;99.90;;;;;;5099719;28;19908;-72
2020/12/12 00:34:57;;;;;;;;;;;9.70;99.90;;;;;;5089956;28;19911;-72
2020/12/12 00:37:24;;;;;;;;;;;9.70;99.90;;;;;;5099036;28;19915;-72
2020/12/12 00:39:49;;;;;;;;;;;9.60;99.90;;;;;;5109186;28;19903;-72
2020/12/12 00:42:15;;;;;;;;;;;9.60;99.90;;;;;;5100837;28;19950;-72
2020/12/12 00:44:40;;;;;;;;;;;9.60;99.90;;;;;;5089385;28;19976;-72
2020/12/12 00:47:06;;;;;;;;;;;9.70;99.90;;;;;;5100688;28;19908;-72
2020/12/12 00:49:31;;;;;;;;;;;9.60;99.90;;;;;;5089632;28;20000;-72
2020/12/12 00:51:57;;;;;;;;;;;9.60;99.90;;;;;;5100754;28;19918;-73
2020/12/12 00:54:23;;;;;;;;;;;9.70;99.90;;;;;;5104864;28;19954;-73
2020/12/12 00:56:48;;;;;;;;;;;9.60;99.90;;;;;;5100437;28;19908;-73
2020/12/12 00:59:14;;;;;;;;;;;9.60;99.90;;;;;;5089227;28;20309;-73
2020/12/12 01:01:39;;;;;;;;;;;9.70;99.90;;;;;;5097961;27;20081;-73
2020/12/12 01:04:05;;;;;;;;;;;9.60;99.90;;;;;;5107740;28;19926;-72
2020/12/12 01:06:30;;;;;;;;;;;9.70;99.90;;;;;;5102687;28;20375;-73
2020/12/12 01:08:56;;;;;;;;;;;9.70;99.90;;;;;;5091873;28;19904;-72
2020/12/12 01:11:21;;;;;;;;;;;9.60;99.90;;;;;;5096045;28;19919;-73
2020/12/12 01:13:47;;;;;;;;;;;9.50;99.90;;;;;;5092666;28;19923;-73
2020/12/12 01:16:13;;;;;;;;;;;9.50;99.90;;;;;;5094903;28;19908;-73
2020/12/12 01:18:39;;;;;;;;;;;9.60;99.90;;;;;;5094025;28;20622;-73
2020/12/12 01:21:05;;;;;;;;;;;9.50;99.90;;;;;;5093293;28;19919;-73
2020/12/12 01:23:31;;;;;;;;;;;9.60;99.90;;;;;;5095044;28;20451;-72
2020/12/12 01:25:56;;;;;;;;;;;9.50;99.90;;;;;;5092557;28;19908;-72
2020/12/12 01:28:22;;;;;;;;;;;9.60;99.90;;;;;;5096241;28;19915;-72
2020/12/12 01:30:48;;;;;;;;;;;9.50;99.90;;;;;;5091130;28;19908;-72
2020/12/12 01:33:14;;;;;;;;;;;9.70;99.90;;;;;;5097605;28;20343;-72
2020/12/12 01:35:40;;;;;;;;;;;9.50;99.90;;;;;;5091238;28;19986;-72
2020/12/12 01:38:05;;;;;;;;;;;9.70;99.90;;;;;;5097746;28;19904;-73
2020/12/12 01:40:31;;;;;;;;;;;9.50;99.90;;;;;;5091146;28;19912;-72
2020/12/12 01:42:56;;;;;;;;;;;9.40;99.90;;;;;;5080328;28;19904;-73
2020/12/12 01:45:22;;;;;;;;;;;9.50;99.90;;;;;;5091006;28;20001;-73
2020/12/12 01:47:47;;;;;;;;;;;9.40;99.90;;;;;;5097771;28;19908;-73
2020/12/12 01:50:13;;;;;;;;;;;9.50;99.90;;;;;;5090984;28;19982;-73
2020/12/12 01:52:39;;;;;;;;;;;9.40;99.90;;;;;;5079544;28;19916;-73
2020/12/12 01:55:05;;;;;;;;;;;9.50;99.90;;;;;;5089822;28;19920;-73
2020/12/12 01:57:30;;;;;;;;;;;9.50;99.90;;;;;;5099323;28;19911;-74
2020/12/12 01:59:56;;;;;;;;;;;9.40;99.90;;;;;;5070625;28;19999;-74
2020/12/12 02:02:22;;;;;;;;;;;9.30;99.90;;;;;;5099958;28;19904;-73
2020/12/12 02:04:49;;;;;;;;;;;9.30;99.90;;;;;;5088721;28;19904;-72
2020/12/12 02:07:17;;;;;;;;;;;9.30;99.90;;;;;;5100237;28;19908;-73
2020/12/12 02:09:44;;;;;;;;;;;9.50;99.90;;;;;;5070597;28;19904;-73
2020/12/12 02:12:10;;;;;;;;;;;9.30;99.90;;;;;;5097058;28;19983;-73
2020/12/12 02:14:38;;;;;;;;;;;9.50;99.90;;;;;;5108960;28;20030;-73
2020/12/12 02:17:04;;;;;;;;;;;9.50;99.90;;;;;;5100818;28;20256;-73
2020/12/12 02:19:29;;;;;;;;;;;9.50;99.90;;;;;;5088643;28;19904;-72
2020/12/12 02:21:55;;;;;;;;;;;9.50;99.90;;;;;;5099904;28;20425;-72
2020/12/12 02:24:21;;;;;;;;;;;9.50;99.90;;;;;;5088723;28;19904;-73
2020/12/12 02:26:47;;;;;;;;;;;9.40;99.90;;;;;;5098968;28;19914;-73
2020/12/12 02:29:13;;;;;;;;;;;9.40;99.90;;;;;;5088889;28;19904;-73
2020/12/12 02:31:39;;;;;;;;;;;9.60;99.90;;;;;;5098236;28;19908;-73
2020/12/12 02:34:05;;;;;;;;;;;9.40;99.90;;;;;;5093786;28;19935;-72
2020/12/12 02:36:37;;;;;;;;;;;9.50;99.90;;;;;;5100677;28;19907;-72
2020/12/12 02:39:04;;;;;;;;;;;9.40;99.90;;;;;;5094170;28;19995;-73
2020/12/12 02:41:30;;;;;;;;;;;9.50;99.90;;;;;;5100379;28;19926;-72
2020/12/12 02:43:55;;;;;;;;;;;9.40;99.90;;;;;;5094906;28;19912;-73
2020/12/12 02:46:21;;;;;;;;;;;9.60;99.90;;;;;;5099173;28;19923;-72
2020/12/12 02:48:48;;;;;;;;;;;9.50;99.90;;;;;;5096312;28;19999;-72
2020/12/12 02:51:15;;;;;;;;;;;9.50;99.90;;;;;;5076177;28;20011;-72
2020/12/12 02:53:42;;;;;;;;;;;9.50;99.90;;;;;;5091767;28;19964;-72
2020/12/12 02:56:07;;;;;;;;;;;9.50;99.90;;;;;;5096931;28;19911;-72
2020/12/12 02:58:33;;;;;;;;;;;9.50;99.90;;;;;;5097818;28;19900;-72
2020/12/12 03:00:58;;;;;;;;;;;9.40;99.90;;;;;;5095563;28;19915;-72
2020/12/12 03:03:24;;;;;;;;;;;9.50;99.90;;;;;;5080670;28;19927;-73
2020/12/12 03:05:49;;;;;;;;;;;9.40;99.90;;;;;;5109520;27;20423;-73
2020/12/12 03:08:15;;;;;;;;;;;9.50;99.90;;;;;;5100367;28;19911;-73
2020/12/12 03:10:40;;;;;;;;;;;9.50;99.90;;;;;;5093867;28;19915;-73
2020/12/12 03:13:06;;;;;;;;;;;9.60;99.90;;;;;;5100421;28;19912;-73
2020/12/12 03:15:31;;;;;;;;;;;9.50;99.90;;;;;;5109277;27;19914;-73
2020/12/12 03:17:57;;;;;;;;;;;9.50;99.90;;;;;;5100441;28;19910;-73
2020/12/12 03:20:23;;;;;;;;;;;9.60;99.90;;;;;;5093651;28;19914;-73
2020/12/12 03:22:49;;;;;;;;;;;9.50;99.90;;;;;;5100393;28;19975;-73
2020/12/12 03:25:14;;;;;;;;;;;9.50;99.90;;;;;;5093140;28;20337;-72
2020/12/12 03:27:40;;;;;;;;;;;9.60;99.90;;;;;;5100455;28;19904;-72
2020/12/12 03:30:05;;;;;;;;;;;9.40;99.90;;;;;;5091522;28;19966;-72
2020/12/12 03:32:31;;;;;;;;;;;9.60;99.90;;;;;;5083154;28;19999;-73
2020/12/12 03:34:57;;;;;;;;;;;9.70;99.90;;;;;;5090910;28;19919;-72
2020/12/12 03:37:22;;;;;;;;;;;9.50;99.90;;;;;;5102105;28;20487;-72
2020/12/12 03:39:48;;;;;;;;;;;9.60;99.90;;;;;;5090587;28;19918;-72
2020/12/12 03:42:13;;;;;;;;;;;9.50;99.90;;;;;;5102390;28;19924;-72
2020/12/12 03:44:39;;;;;;;;;;;9.50;99.90;;;;;;5090228;28;19995;-72
2020/12/12 03:47:04;;;;;;;;;;;9.50;99.90;;;;;;5083856;28;20011;-72
2020/12/12 03:49:30;;;;;;;;;;;9.50;99.90;;;;;;5072263;28;19911;-73
2020/12/12 03:51:55;;;;;;;;;;;9.50;99.90;;;;;;5101882;28;19907;-73
2020/12/12 03:54:21;;;;;;;;;;;9.30;99.90;;;;;;5090365;28;19912;-73
2020/12/12 03:56:46;;;;;;;;;;;9.30;99.90;;;;;;5100677;28;20320;-73
2020/12/12 03:59:12;;;;;;;;;;;9.40;99.90;;;;;;5091248;28;19989;-73
2020/12/12 04:01:37;;;;;;;;;;;9.30;99.90;;;;;;5099184;28;19908;-73
2020/12/12 04:04:04;;;;;;;;;;;9.40;99.90;;;;;;5092177;28;20416;-73
2020/12/12 04:06:31;;;;;;;;;;;9.30;99.90;;;;;;5098128;28;20003;-72
2020/12/12 04:08:56;;;;;;;;;;;9.30;99.90;;;;;;5093090;28;20053;-72
2020/12/12 04:11:22;;;;;;;;;;;9.40;99.90;;;;;;5096934;28;20418;-72
2020/12/12 04:13:47;;;;;;;;;;;9.30;99.90;;;;;;5094096;28;20018;-72
2020/12/12 04:16:13;;;;;;;;;;;9.50;99.90;;;;;;5095442;28;19908;-72
2020/12/12 04:18:39;;;;;;;;;;;9.40;99.90;;;;;;5094405;28;20375;-71
2020/12/12 04:21:06;;;;;;;;;;;9.30;99.90;;;;;;5102644;28;19919;-72
2020/12/12 04:23:31;;;;;;;;;;;9.30;99.90;;;;;;5106749;28;19903;-72
2020/12/12 04:25:57;;;;;;;;;;;9.40;99.90;;;;;;5107040;28;19930;-72
2020/12/12 04:28:22;;;;;;;;;;;9.30;99.90;;;;;;5109863;28;20003;-72
2020/12/12 04:30:48;;;;;;;;;;;9.30;99.90;;;;;;5103592;28;19934;-71
2020/12/12 04:33:13;;;;;;;;;;;9.40;99.90;;;;;;5098574;28;19911;-72
2020/12/12 04:35:39;;;;;;;;;;;9.70;99.90;;;;;;5092059;28;19930;-72
2020/12/12 04:38:05;;;;;;;;;;;9.60;99.90;;;;;;5098625;28;20355;-74
2020/12/12 04:40:30;;;;;;;;;;;9.50;99.90;;;;;;5094113;28;19911;-74
2020/12/12 04:42:56;;;;;;;;;;;9.50;99.90;;;;;;5098687;28;20003;-74
2020/12/12 04:45:22;;;;;;;;;;;9.50;99.90;;;;;;5105420;28;19916;-73
2020/12/12 04:47:50;;;;;;;;;;;9.40;99.90;;;;;;5109405;28;19943;-75
2020/12/12 04:50:16;;;;;;;;;;;9.40;99.90;;;;;;5108117;28;19916;-74
2020/12/12 04:52:42;;;;;;;;;;;9.30;99.90;;;;;;5108859;28;20056;-73
2020/12/12 04:55:08;;;;;;;;;;;9.30;99.90;;;;;;5107508;28;20329;-77
2020/12/12 04:57:34;;;;;;;;;;;9.30;99.90;;;;;;5109144;28;20237;-72
2020/12/12 05:00:00;;;;;;;;;;;9.30;99.90;;;;;;5107599;28;19911;-72
2020/12/12 05:02:26;;;;;;;;;;;9.30;99.90;;;;;;5087621;28;19908;-75
2020/12/12 05:04:51;;;;;;;;;;;9.20;99.90;;;;;;5091153;28;20341;-73
2020/12/12 05:07:17;;;;;;;;;;;9.20;99.90;;;;;;5101406;28;19968;-74
2020/12/12 05:09:46;;;;;;;;;;;9.30;99.90;;;;;;5089227;28;19994;-77
2020/12/12 05:12:13;;;;;;;;;;;9.20;99.90;;;;;;5082441;28;19915;-75
2020/12/12 05:14:38;;;;;;;;;;;9.10;99.90;;;;;;5099002;28;20332;-75
2020/12/12 05:17:07;;;;;;;;;;;9.10;99.90;;;;;;5105409;28;19908;-73
2020/12/12 05:19:32;;;;;;;;;;;9.10;99.90;;;;;;5089050;28;20317;-74
2020/12/12 05:22:01;;;;;;;;;;;9.20;99.90;;;;;;5100309;28;19918;-74
2020/12/12 05:24:26;;;;;;;;;;;9.10;99.90;;;;;;5104532;28;20458;-74
2020/12/12 05:26:58;;;;;;;;;;;9.10;99.90;;;;;;5099885;28;19919;-75
2020/12/12 05:29:23;;;;;;;;;;;9.00;99.90;;;;;;5088659;28;20536;-74
2020/12/12 05:31:49;;;;;;;;;;;9.20;99.90;;;;;;5099298;28;19911;-75
2020/12/12 05:34:15;;;;;;;;;;;9.00;99.90;;;;;;5089496;28;19923;-73
2020/12/12 05:36:43;;;;;;;;;;;8.90;99.90;;;;;;5097969;28;19903;-73
2020/12/12 05:39:10;;;;;;;;;;;9.00;99.90;;;;;;5090587;28;19915;-74
2020/12/12 05:41:35;;;;;;;;;;;9.00;99.90;;;;;;5097295;28;20229;-74
2020/12/12 05:44:01;;;;;;;;;;;8.90;99.90;;;;;;5080992;28;19920;-73
2020/12/12 05:46:26;;;;;;;;;;;8.90;99.90;;;;;;5106122;28;20322;-76
2020/12/12 05:48:52;;;;;;;;;;;8.90;99.90;;;;;;5108874;28;19903;-78
2020/12/12 05:51:18;;;;;;;;;;;8.90;99.90;;;;;;5102359;28;20339;-73
2020/12/12 05:53:45;;;;;;;;;;;8.90;99.90;;;;;;5093926;28;19932;-76
2020/12/12 05:56:11;;;;;;;;;;;8.80;99.90;;;;;;5093926;28;19908;-76
2020/12/12 05:58:38;;;;;;;;;;;8.80;99.90;;;;;;5094945;28;19904;-75
2020/12/12 06:01:04;;;;;;;;;;;8.60;99.90;;;;;;5092819;28;19981;-72
2020/12/12 06:03:31;;;;;;;;;;;8.70;99.90;;;;;;5097971;28;20225;-74
2020/12/12 06:06:04;;;;;;;;;;;8.80;99.90;;;;;;5102993;28;19908;-76
2020/12/12 06:08:36;;;;;;;;;;;8.80;99.90;;;;;;5100102;28;19904;-77
2020/12/12 06:11:07;;;;;;;;;;;8.80;99.90;;;;;;5096603;28;19911;-75
2020/12/12 06:13:36;;;;;;;;;;;8.70;99.90;;;;;;5099331;28;19912;-76
2020/12/12 06:16:02;;;;;;;;;;;8.80;99.90;;;;;;5096456;28;19916;-76
2020/12/12 06:18:36;;;;;;;;;;;8.90;99.90;;;;;;5100121;28;20347;-74
2020/12/12 06:21:05;;;;;;;;;;;8.90;99.90;;;;;;5078243;28;19908;-73
2020/12/12 06:23:32;;;;;;;;;;;8.80;99.90;;;;;;5099592;28;19911;-71
2020/12/12 06:25:58;;;;;;;;;;;8.80;99.90;;;;;;5099224;28;19915;-74
2020/12/12 06:28:27;;;;;;;;;;;8.70;99.90;;;;;;5121365;27;19903;-77
2020/12/12 06:30:55;;;;;;;;;;;8.70;99.90;;;;;;5088454;28;19915;-74
2020/12/12 06:33:21;;;;;;;;;;;8.80;99.90;;;;;;5104148;28;19956;-72
2020/12/12 06:35:46;;;;;;;;;;;8.90;99.90;;;;;;5106940;28;20006;-76
2020/12/12 06:38:18;;;;;;;;;;;8.90;99.90;;;;;;5104609;28;19914;-73
2020/12/12 06:40:44;;;;;;;;;;;8.80;99.90;;;;;;5110117;28;20044;-73
2020/12/12 06:43:42;;;;;;;;;;;8.80;99.90;;;;;;5107658;28;20015;-72
2020/12/12 06:46:07;;;;;;;;;;;8.80;99.90;;;;;;5074059;28;19915;-73
2020/12/12 06:48:33;;;;;;;;;;;8.70;99.90;;;;;;5108823;28;20236;-73
2020/12/12 06:50:59;;;;;;;;;;;8.70;99.90;;;;;;5092922;28;19984;-73
2020/12/12 06:53:34;;;;;;;;;;;8.70;99.90;;;;;;5109251;28;19927;-74
2020/12/12 06:56:15;;;;;;;;;;;8.80;99.90;;;;;;5093181;28;20347;-73
2020/12/12 06:58:44;;;;;;;;;;;8.60;99.90;;;;;;5106745;28;20014;-72
2020/12/12 07:01:28;;;;;;;;;;;8.70;99.90;;;;;;5106178;28;20002;-72
2020/12/12 07:04:06;;;;;;;;;;;8.60;99.90;;;;;;5095686;28;19909;-73
2020/12/12 07:06:32;;;;;;;;;;;8.60;99.90;;;;;;5113185;27;19908;-73
2020/12/12 07:09:03;;;;;;;;;;;8.50;99.90;;;;;;5108932;28;19908;-72
2020/12/12 07:11:31;;;;;;;;;;;8.70;99.90;;;;;;5105395;28;20264;-72
2020/12/12 07:13:58;;;;;;;;;;;8.70;99.90;;;;;;5095619;28;19916;-73
2020/12/12 07:16:23;;;;;;;;;;;8.60;99.90;;;;;;5097998;28;19908;-74
2020/12/12 07:18:49;;;;;;;;;;;8.70;99.90;;;;;;5095342;28;19950;-73
2020/12/12 07:21:15;;;;;;;;;;;8.60;99.90;;;;;;5096514;28;20150;-72
2020/12/12 07:23:40;;;;;;;;;;;8.60;99.90;;;;;;5097326;28;19915;-74
2020/12/12 07:26:06;;;;;;;;;;;8.70;99.90;;;;;;5095320;28;20273;-72
2020/12/12 07:28:32;;;;;;;;;;;8.60;99.90;;;;;;5098202;28;19908;-74
2020/12/12 07:30:57;;;;;;;;;;;8.60;99.90;;;;;;5093915;28;19904;-73
2020/12/12 07:33:23;;;;;;;;;;;8.70;99.90;;;;;;5099491;28;19916;-74
2020/12/12 07:35:48;;;;;;;;;;;8.60;99.90;;;;;;5075405;28;19904;-73
2020/12/12 07:38:14;;;;;;;;;;;8.60;99.90;;;;;;5100132;28;20368;-71
2020/12/12 07:40:40;;;;;;;;;;;8.70;99.90;;;;;;5093401;28;19910;-72
2020/12/12 07:43:06;;;;;;;;;;;8.70;99.90;;;;;;5099757;28;19912;-73
2020/12/12 07:48:01;;;;;;;;;;;8.80;99.90;;;;;;5100310;28;19923;-73
2020/12/12 07:50:27;;;;;;;;;;;8.70;99.90;;;;;;5093301;28;19911;-73
2020/12/12 07:52:52;;;;;;;;;;;8.70;99.90;;;;;;5099714;28;19953;-72
2020/12/12 07:55:23;;;;;;;;;;;8.80;99.90;;;;;;5093828;28;19916;-74
2020/12/12 07:57:51;;;;;;;;;;;8.80;99.90;;;;;;5080520;28;20019;-73
2020/12/12 08:00:16;;;;;;;;;;;8.80;99.90;;;;;;5097764;28;20420;-73
2020/12/12 08:02:42;;;;;;;;;;;8.80;99.90;;;;;;5100401;28;19923;-72
2020/12/12 08:05:08;;;;;;;;;;;8.80;99.90;;;;;;5109894;28;19911;-73
2020/12/12 08:07:34;;;;;;;;;;;8.90;99.90;;;;;;5101575;28;19908;-73
2020/12/12 08:10:00;;;;;;;;;;;8.90;99.90;;;;;;5090889;28;19961;-73
2020/12/12 08:12:31;;;;;;;;;;;8.90;99.90;;;;;;5101615;28;20000;-72
2020/12/12 08:14:59;;;;;;;;;;;8.80;99.90;;;;;;5090434;28;20321;-73
2020/12/12 08:17:33;;;;;;;;;;;8.70;99.90;;;;;;5101566;28;20008;-73
2020/12/12 08:19:59;;;;;;;;;;;8.80;99.90;;;;;;5105658;28;19908;-74
2020/12/12 08:22:25;;;;;;;;;;;8.80;99.90;;;;;;5101498;28;19922;-74
2020/12/12 08:24:51;;;;;;;;;;;8.90;99.90;;;;;;5090143;28;20252;-74
2020/12/12 08:27:21;;;;;;;;;;;8.90;99.90;;;;;;5101870;28;19911;-78
2020/12/12 08:29:51;;;;;;;;;;;9.00;99.90;;;;;;5088939;28;20297;-77
2020/12/12 08:32:37;;;;;;;;;;;9.20;99.90;;;;;;5090707;28;19908;-75
2020/12/12 08:35:08;;;;;;;;;;;9.30;99.90;;;;;;5105560;28;19985;-77
2020/12/12 08:37:34;;;;;;;;;;;9.30;99.90;;;;;;5099924;28;20006;-77
2020/12/12 08:40:10;;;;;;;;;;;9.30;99.90;;;;;;5107899;28;19959;-77
2020/12/12 08:42:35;;;;;;;;;;;9.20;99.90;;;;;;5107249;28;20002;-77
2020/12/12 08:45:11;;;;;;;;;;;9.20;99.90;;;;;;5082284;28;20003;-77
2020/12/12 08:47:36;;;;;;;;;;;9.30;99.90;;;;;;5075976;28;20285;-80
2020/12/12 08:50:02;;;;;;;;;;;9.20;99.90;;;;;;5063118;28;19915;-79
2020/12/12 08:52:28;;;;;;;;;;;9.30;99.90;;;;;;5071254;28;19947;-79
2020/12/12 08:54:57;;;;;;;;;;;9.10;99.90;;;;;;5081169;28;19976;-78
2020/12/12 08:57:22;;;;;;;;;;;9.30;99.90;;;;;;5060493;28;19915;-77
2020/12/12 08:59:56;;;;;;;;;;;9.10;99.90;;;;;;5071347;28;19990;-78
2020/12/12 09:02:22;;;;;;;;;;;9.20;99.90;;;;;;5058088;28;19916;-79
2020/12/12 09:05:04;;;;;;;;;;;9.40;99.90;;;;;;5069207;28;19908;-78
2020/12/12 09:07:29;;;;;;;;;;;9.30;99.90;;;;;;5058150;28;19908;-77
2020/12/12 09:10:05;;;;;;;;;;;9.40;99.90;;;;;;5070785;28;19961;-77
2020/12/12 09:12:42;;;;;;;;;;;9.60;99.90;;;;;;5059093;28;20560;-77
2020/12/12 09:15:07;;;;;;;;;;;9.80;99.90;;;;;;5049301;28;19909;-78
2020/12/12 09:17:33;;;;;;;;;;;9.70;99.90;;;;;;5058172;28;20395;-78
2020/12/12 09:19:58;;;;;;;;;;;9.50;99.90;;;;;;5068366;28;20375;-76
2020/12/12 09:22:24;;;;;;;;;;;9.70;99.90;;;;;;5060236;28;19953;-76
2020/12/12 09:24:49;;;;;;;;;;;9.60;99.90;;;;;;5049073;28;19905;-77
2020/12/12 09:27:15;;;;;;;;;;;10.00;99.90;;;;;;5060069;28;19909;-77
2020/12/12 09:29:40;;;;;;;;;;;10.00;99.90;;;;;;5048832;28;19931;-80
2020/12/12 09:32:06;;;;;;;;;;;10.00;99.90;;;;;;5062806;28;20347;-77
2020/12/12 09:34:31;;;;;;;;;;;9.90;99.90;;;;;;5048860;28;20405;-78
2020/12/12 09:36:57;;;;;;;;;;;10.20;99.90;;;;;;5059683;28;19904;-75
2020/12/12 09:39:22;;;;;;;;;;;10.20;99.90;;;;;;5049351;28;19908;-77
2020/12/12 09:41:48;;;;;;;;;;;10.20;99.90;;;;;;5057808;28;19944;-77
2020/12/12 09:44:13;;;;;;;;;;;10.30;99.90;;;;;;5067571;28;19916;-77
2020/12/12 09:46:39;;;;;;;;;;;10.20;99.90;;;;;;5097044;28;19908;-76
2020/12/12 09:49:04;;;;;;;;;;;10.20;99.90;;;;;;5091639;28;20014;-76
2020/12/12 09:51:30;;;;;;;;;;;10.00;99.90;;;;;;5111521;28;20279;-76
2020/12/12 09:53:57;;;;;;;;;;;10.00;99.90;;;;;;5092835;28;20380;-76
2020/12/12 09:56:23;;;;;;;;;;;9.90;99.90;;;;;;5094952;28;19915;-76
2020/12/12 09:58:48;;;;;;;;;;;9.80;99.90;;;;;;5093688;28;19904;-77
2020/12/12 10:01:14;;;;;;;;;;;9.70;99.90;;;;;;5093462;28;19931;-76
2020/12/12 10:03:40;;;;;;;;;;;9.90;99.90;;;;;;5094929;28;20287;-77
2020/12/12 10:06:06;;;;;;;;;;;9.90;99.90;;;;;;5094753;28;20089;-76
2020/12/12 10:08:32;;;;;;;;;;;10.30;99.90;;;;;;5108848;28;20056;-76
2020/12/12 10:10:57;;;;;;;;;;;10.60;99.90;;;;;;5102021;28;19951;-77
2020/12/12 10:13:23;;;;;;;;;;;10.40;99.90;;;;;;5097022;28;19912;-75
2020/12/12 10:15:48;;;;;;;;;;;10.50;99.90;;;;;;5090932;28;19912;-75
2020/12/12 10:18:15;;;;;;;;;;;10.60;99.90;;;;;;5097473;28;20360;-75
2020/12/12 10:20:40;;;;;;;;;;;10.80;99.90;;;;;;5090949;28;20484;-75
2020/12/12 10:23:06;;;;;;;;;;;10.90;99.90;;;;;;5097291;28;19947;-75
2020/12/12 10:25:31;;;;;;;;;;;10.80;99.90;;;;;;5106366;28;19998;-74
2020/12/12 10:27:57;;;;;;;;;;;11.20;99.90;;;;;;5099897;28;20394;-75
2020/12/12 10:30:23;;;;;;;;;;;10.90;99.90;;;;;;5107799;28;19966;-75
2020/12/12 10:32:48;;;;;;;;;;;10.60;99.90;;;;;;5097544;28;19904;-74
2020/12/12 10:35:15;;;;;;;;;;;10.40;99.90;;;;;;5089193;28;20354;-74
2020/12/12 10:37:40;;;;;;;;;;;10.50;99.90;;;;;;5080545;28;20390;-75
2020/12/12 10:40:32;;;;;;;;;;;10.30;99.90;;;;;;5088798;28;20041;-74
2020/12/12 10:42:53;;;;;;;;;;;10.20;99.90;;;;;;5093243;28;19979;-75
2020/12/12 10:45:18;;;;;;;;;;;10.20;99.90;;;;;;5089642;28;20014;-75
2020/12/12 10:47:44;;;;;;;;;;;10.20;99.90;;;;;;5098321;28;19980;-74
2020/12/12 10:50:09;;;;;;;;;;;10.10;99.90;;;;;;5088555;28;19904;-76
2020/12/12 10:52:35;;;;;;;;;;;10.10;99.90;;;;;;5088211;28;20069;-75
2020/12/12 10:55:01;;;;;;;;;;;10.10;99.90;;;;;;5111457;28;19908;-74
2020/12/12 10:57:27;;;;;;;;;;;10.10;99.90;;;;;;5103463;28;19904;-75
2020/12/12 10:59:52;;;;;;;;;;;10.00;99.90;;;;;;5091651;28;20288;-75
2020/12/12 11:02:18;;;;;;;;;;;10.00;99.90;;;;;;5103393;28;20307;-75
2020/12/12 11:04:43;;;;;;;;;;;10.10;99.90;;;;;;5092018;28;19904;-75
2020/12/12 11:07:10;;;;;;;;;;;10.20;99.90;;;;;;5103209;28;19994;-75
2020/12/12 11:09:36;;;;;;;;;;;10.30;99.90;;;;;;5091965;28;19908;-75
2020/12/12 11:12:01;;;;;;;;;;;10.30;99.90;;;;;;5103143;28;19904;-75
2020/12/12 11:14:29;;;;;;;;;;;10.90;99.90;;;;;;5091618;28;19912;-75
2020/12/12 11:16:56;;;;;;;;;;;10.60;99.90;;;;;;5102449;28;19911;-75
2020/12/12 11:19:22;;;;;;;;;;;10.60;99.90;;;;;;5092220;28;19904;-75
2020/12/12 11:21:48;;;;;;;;;;;11.00;99.90;;;;;;5101168;28;19907;-75
2020/12/12 11:24:13;;;;;;;;;;;11.20;99.90;;;;;;5093631;28;20338;-75
2020/12/12 11:26:39;;;;;;;;;;;11.30;99.90;;;;;;5099620;28;19911;-75
2020/12/12 11:29:04;;;;;;;;;;;10.90;99.90;;;;;;5094258;28;20060;-75
2020/12/12 11:31:30;;;;;;;;;;;10.80;99.90;;;;;;5101889;27;20120;-75
2020/12/12 11:39:14;;;;;;;;;;;10.70;99.90;;;;;;5094298;28;19999;-75
2020/12/12 11:46:50;;;;;;;;;;;10.40;99.90;;;;;;5100650;28;20052;-75
2020/12/12 11:49:16;;;;;;;;;;;10.20;99.90;;;;;;5092647;28;20002;-74
2020/12/12 11:51:42;;;;;;;;;;;10.00;99.90;;;;;;5099638;28;19934;-76
2020/12/12 11:54:07;;;;;;;;;;;9.80;99.90;;;;;;5093795;28;19942;-74
2020/12/12 11:56:33;;;;;;;;;;;9.80;99.90;;;;;;5098026;28;20011;-75
2020/12/12 11:58:58;;;;;;;;;;;9.60;99.90;;;;;;5076402;28;19915;-75
2020/12/12 12:01:25;;;;;;;;;;;9.50;99.90;;;;;;5096819;28;19907;-75
2020/12/12 12:03:51;;;;;;;;;;;9.40;99.90;;;;;;5095666;28;19918;-75
2020/12/12 12:06:17;;;;;;;;;;;10.10;99.90;;;;;;5095560;28;19908;-69
2020/12/12 12:11:37;;;;;;;;;;;10.20;99.90;;;;;;5084882;28;19907;-75
2020/12/12 12:14:03;;;;;;;;;;;10.60;99.90;;;;;;5109597;28;20436;-75
2020/12/12 12:16:35;;;;;;;;;;;10.60;99.90;;;;;;5104116;28;19927;-75
2020/12/12 12:19:01;;;;;;;;;;;10.50;99.90;;;;;;5110048;28;19908;-75
2020/12/12 12:21:27;;;;;;;;;;;10.50;99.90;;;;;;5091521;28;19907;-75
2020/12/12 12:23:52;;;;;;;;;;;10.50;99.90;;;;;;5108132;28;20599;-74
2020/12/12 12:26:18;;;;;;;;;;;10.60;99.90;;;;;;5103839;28;20060;-74
2020/12/12 12:28:43;;;;;;;;;;;10.50;99.90;;;;;;5109308;28;19921;-73
2020/12/12 12:31:09;;;;;;;;;;;10.50;99.90;;;;;;5108888;27;19933;-74
2020/12/12 12:33:34;;;;;;;;;;;10.60;99.90;;;;;;5109117;28;20351;-74
2020/12/12 12:36:00;;;;;;;;;;;10.60;99.90;;;;;;5108618;28;19968;-74
2020/12/12 12:38:25;;;;;;;;;;;10.50;99.90;;;;;;5109399;28;19934;-74
2020/12/12 12:40:51;;;;;;;;;;;10.60;99.90;;;;;;5108755;28;20041;-74
2020/12/12 12:43:16;;;;;;;;;;;10.50;99.90;;;;;;5108599;28;20310;-74
2020/12/12 12:45:42;;;;;;;;;;;10.70;99.90;;;;;;5108611;28;19977;-74
2020/12/12 12:48:08;;;;;;;;;;;10.60;99.90;;;;;;5105497;28;20417;-74
2020/12/12 12:50:33;;;;;;;;;;;10.70;99.90;;;;;;5090489;28;19990;-74
2020/12/12 12:53:09;;;;;;;;;;;10.60;99.90;;;;;;5098775;28;19964;-75
2020/12/12 12:55:35;;;;;;;;;;;10.60;99.90;;;;;;5098040;28;20321;-75
2020/12/12 12:58:01;;;;;;;;;;;10.50;99.90;;;;;;5104202;28;19910;-74
2020/12/12 13:00:27;;;;;;;;;;;10.50;99.90;;;;;;5107329;28;19908;-74
2020/12/12 13:02:53;;;;;;;;;;;10.50;99.90;;;;;;5104296;28;19947;-74
2020/12/12 13:05:19;;;;;;;;;;;10.70;99.90;;;;;;5107349;28;20024;-73
2020/12/12 13:07:44;;;;;;;;;;;10.60;99.90;;;;;;5104120;28;19904;-75
2020/12/12 13:10:10;;;;;;;;;;;10.50;99.90;;;;;;5107497;28;19904;-75
2020/12/12 13:12:35;;;;;;;;;;;10.70;99.90;;;;;;5103551;28;19904;-75
2020/12/12 13:15:01;;;;;;;;;;;10.70;99.90;;;;;;5108010;28;19923;-75
2020/12/12 13:17:27;;;;;;;;;;;10.70;99.90;;;;;;5102331;28;19923;-75
2020/12/12 13:20:07;;;;;;;;;;;10.50;99.90;;;;;;5109186;28;19911;-74
2020/12/12 13:22:33;;;;;;;;;;;10.60;99.90;;;;;;5100448;28;20369;-75
2020/12/12 13:24:58;;;;;;;;;;;10.60;99.90;;;;;;5088833;28;19910;-75
2020/12/12 13:27:24;;;;;;;;;;;10.50;99.90;;;;;;5100795;28;20287;-74
2020/12/12 13:32:33;;;;;;;;;;;11.40;99.90;;;;;;5101528;28;19922;-74
2020/12/12 13:34:59;;;;;;;;;;;11.90;99.90;;;;;;5107634;28;19911;-74
2020/12/12 13:37:24;;;;;;;;;;;11.70;99.90;;;;;;5103001;28;19912;-74
2020/12/12 13:39:51;;;;;;;;;;;12.30;99.90;;;;;;5109174;28;19907;-74
2020/12/12 13:42:17;;;;;;;;;;;12.50;99.90;;;;;;5100870;28;19927;-74
2020/12/12 13:44:43;;;;;;;;;;;11.80;99.90;;;;;;5088844;28;19916;-74
2020/12/12 13:47:12;;;;;;;;;;;11.40;99.90;;;;;;5100252;28;19908;-73
2020/12/12 13:49:38;;;;;;;;;;;11.10;99.90;;;;;;5088635;28;19904;-74
2020/12/12 13:52:04;;;;;;;;;;;11.10;99.90;;;;;;5100270;28;20002;-73
2020/12/12 13:54:30;;;;;;;;;;;11.00;99.90;;;;;;5088737;28;19955;-74
2020/12/12 13:56:56;;;;;;;;;;;11.00;99.90;;;;;;5098936;28;19908;-74
2020/12/12 13:59:21;;;;;;;;;;;10.90;99.90;;;;;;5090088;28;19916;-73
2020/12/12 14:01:50;;;;;;;;;;;10.90;99.90;;;;;;5097572;28;19934;-74
2020/12/12 14:04:16;;;;;;;;;;;10.90;99.90;;;;;;5090529;28;19915;-73
2020/12/12 14:06:53;;;;;;;;;;;10.60;99.90;;;;;;5096712;28;19916;-73
2020/12/12 14:23:06;;;;;;;;;;;10.40;99.90;;;;;;5068081;28;19934;-73
2020/12/12 14:28:22;;;;;;;;;;;10.20;99.90;;;;;;5106050;28;19930;-73
2020/12/12 14:30:48;;;;;;;;;;;10.10;99.90;;;;;;5110043;27;19960;-73
2020/12/12 14:33:14;;;;;;;;;;;10.00;99.90;;;;;;5108247;28;19934;-73
2020/12/12 14:35:40;;;;;;;;;;;10.10;99.90;;;;;;5109881;28;19919;-73
2020/12/12 14:38:05;;;;;;;;;;;10.20;99.90;;;;;;5108008;28;19944;-73
2020/12/12 14:40:31;;;;;;;;;;;10.30;99.90;;;;;;5109834;28;19947;-73
2020/12/12 14:42:57;;;;;;;;;;;10.30;99.90;;;;;;5101256;28;19954;-74
2020/12/12 14:45:22;;;;;;;;;;;10.30;99.90;;;;;;5091300;28;19955;-73
2020/12/12 14:47:48;;;;;;;;;;;10.20;99.90;;;;;;5081700;28;19904;-74
2020/12/12 14:50:14;;;;;;;;;;;10.00;99.90;;;;;;5071876;28;19911;-73
2020/12/12 14:52:40;;;;;;;;;;;9.90;99.90;;;;;;5099306;28;20049;-74
2020/12/12 14:55:05;;;;;;;;;;;10.00;99.90;;;;;;5108884;28;20014;-74
2020/12/12 14:57:31;;;;;;;;;;;9.90;99.90;;;;;;5105931;28;19916;-73